createdAt,value
2023-06-10T00:00:52.945Z,53.91
2023-06-10T00:03:24.696Z,53.97
2023-06-10T00:05:55.169Z,54.09
2023-06-10T00:08:23.605Z,54.68
2023-06-10T00:10:51.967Z,54.64
2023-06-10T00:13:20.256Z,54.34
2023-06-10T00:15:48.649Z,54.64
2023-06-10T00:18:25.535Z,54.69
2023-06-10T00:20:56.282Z,54.71
2023-06-10T00:23:26.342Z,54.79
2023-06-10T00:25:54.820Z,55.26
2023-06-10T00:28:23.230Z,55.26
2023-06-10T00:30:51.499Z,55.34
2023-06-10T00:33:19.847Z,54.82
2023-06-10T00:35:48.406Z,55.44
2023-06-10T00:38:18.133Z,55.43
2023-06-10T00:40:46.702Z,55.23
2023-06-10T00:43:15.158Z,55.42
2023-06-10T00:45:43.540Z,55.54
2023-06-10T00:48:12.431Z,55.48
2023-06-10T00:50:41.346Z,55.55
2023-06-10T00:53:10.786Z,55.36
2023-06-10T00:55:41.197Z,55.15
2023-06-10T00:58:11.444Z,55.45
2023-06-10T01:00:39.845Z,55.25
2023-06-10T01:03:09.320Z,55.47
2023-06-10T01:05:38.549Z,55.92
2023-06-10T01:08:30.526Z,56.00
2023-06-10T01:11:04.238Z,55.95
2023-06-10T01:13:33.669Z,55.74
2023-06-10T01:16:03.034Z,55.67
2023-06-10T01:18:33.575Z,55.68
2023-06-10T01:21:01.792Z,55.55
2023-06-10T01:23:32.087Z,55.33
2023-06-10T01:26:04.890Z,55.13
2023-06-10T01:28:41.364Z,55.30
2023-06-10T01:31:22.310Z,55.16
2023-06-10T01:33:55.057Z,55.45
2023-06-10T01:36:26.732Z,56.09
2023-06-10T01:38:57.821Z,55.88
2023-06-10T01:41:27.123Z,55.96
2023-06-10T01:43:57.653Z,55.99
2023-06-10T01:46:25.958Z,56.16
2023-06-10T01:48:54.479Z,55.79
2023-06-10T01:51:22.946Z,56.11
2023-06-10T01:53:51.395Z,55.83
2023-06-10T01:56:21.662Z,55.95
2023-06-10T01:58:50.121Z,55.87
2023-06-10T02:01:18.871Z,56.05
2023-06-10T02:03:47.362Z,55.84
2023-06-10T02:06:15.938Z,55.80
2023-06-10T02:08:44.313Z,55.72
2023-06-10T02:11:12.701Z,55.80
2023-06-10T02:13:42.370Z,55.41
2023-06-10T02:16:13.957Z,55.49
2023-06-10T02:18:45.230Z,55.97
2023-06-10T02:21:13.655Z,55.59
2023-06-10T02:23:42.085Z,55.90
2023-06-10T02:26:10.674Z,55.80
2023-06-10T02:28:39.097Z,56.03
2023-06-10T02:31:09.279Z,55.95
2023-06-10T02:33:41.251Z,56.31
2023-06-10T02:36:10.045Z,56.44
2023-06-10T02:38:38.380Z,56.39
2023-06-10T02:41:07.050Z,56.65
2023-06-10T02:43:35.993Z,56.47
2023-06-10T02:46:05.048Z,56.67
2023-06-10T02:48:44.367Z,57.19
2023-06-10T02:51:14.945Z,56.80
2023-06-10T02:53:47.690Z,56.72
2023-06-10T02:56:19.301Z,56.58
2023-06-10T02:58:48.034Z,56.45
2023-06-10T03:01:19.018Z,56.93
2023-06-10T03:04:00.219Z,56.93
2023-06-10T03:06:28.839Z,56.62
2023-06-10T03:09:07.479Z,56.66
2023-06-10T03:11:36.208Z,56.80
2023-06-10T03:14:04.976Z,57.02
2023-06-10T03:16:34.556Z,56.97
2023-06-10T03:19:04.735Z,57.34
2023-06-10T03:21:34.128Z,57.05
2023-06-10T03:24:03.042Z,57.18
2023-06-10T03:26:31.424Z,57.28
2023-06-10T03:29:00.684Z,57.44
2023-06-10T03:31:29.165Z,57.11
2023-06-10T03:33:59.408Z,57.37
2023-06-10T03:36:30.295Z,57.14
2023-06-10T03:38:59.321Z,56.94
2023-06-10T03:41:28.657Z,56.98
2023-06-10T03:43:57.121Z,57.07
2023-06-10T03:46:25.798Z,57.00
2023-06-10T03:48:54.302Z,56.99
2023-06-10T03:51:22.864Z,56.87
2023-06-10T03:53:53.217Z,56.58
2023-06-10T03:56:21.641Z,56.95
2023-06-10T03:58:49.965Z,56.63
2023-06-10T04:01:22.036Z,56.71
2023-06-10T04:03:52.351Z,56.42
2023-06-10T04:06:20.704Z,56.59
2023-06-10T04:08:49.013Z,56.89
2023-06-10T04:11:18.824Z,56.78
2023-06-10T04:13:48.251Z,56.38
2023-06-10T04:16:17.052Z,56.87
2023-06-10T04:18:45.464Z,56.86
2023-06-10T04:21:14.457Z,56.89
2023-06-10T04:23:42.853Z,57.29
2023-06-10T04:26:13.195Z,57.13
2023-06-10T04:28:45.072Z,56.89
2023-06-10T04:31:14.008Z,56.75
2023-06-10T04:33:43.249Z,57.16
2023-06-10T04:36:12.414Z,56.80
2023-06-10T04:38:41.819Z,56.74
2023-06-10T04:41:10.823Z,57.28
2023-06-10T04:43:39.774Z,57.02
2023-06-10T04:46:09.665Z,57.21
2023-06-10T04:48:38.632Z,57.23
2023-06-10T04:51:07.430Z,57.16
2023-06-10T04:53:35.905Z,57.37
2023-06-10T04:56:04.314Z,56.97
2023-06-10T04:58:32.775Z,57.10
2023-06-10T05:01:01.176Z,57.24
2023-06-10T05:03:31.098Z,57.22
2023-06-10T05:05:59.534Z,56.81
2023-06-10T05:08:28.019Z,56.74
2023-06-10T05:10:56.466Z,56.94
2023-06-10T05:13:24.745Z,57.25
2023-06-10T05:15:53.289Z,57.22
2023-06-10T05:18:22.382Z,57.50
2023-06-10T05:20:52.309Z,57.79
2023-06-10T05:23:20.613Z,57.65
2023-06-10T05:25:49.044Z,57.39
2023-06-10T05:28:17.373Z,57.79
2023-06-10T05:30:46.257Z,57.71
2023-06-10T05:33:14.715Z,58.23
2023-06-10T05:35:43.186Z,59.09
2023-06-10T05:38:12.953Z,59.07
2023-06-10T05:40:41.284Z,59.38
2023-06-10T05:43:10.571Z,60.07
2023-06-10T05:45:41.629Z,60.11
2023-06-10T05:48:10.147Z,60.29
2023-06-10T05:50:40.908Z,59.56
2023-06-10T05:53:15.811Z,60.50
2023-06-10T05:55:47.120Z,61.86
2023-06-10T05:58:16.711Z,61.63
2023-06-10T06:00:45.220Z,61.24
2023-06-10T06:03:14.468Z,60.51
2023-06-10T06:05:43.200Z,60.94
2023-06-10T06:08:14.426Z,60.34
2023-06-10T06:10:42.999Z,62.08
2023-06-10T06:13:12.807Z,60.78
2023-06-10T06:15:41.235Z,62.44
2023-06-10T06:18:09.634Z,61.10
2023-06-10T06:20:38.764Z,61.14
2023-06-10T06:23:07.117Z,60.28
2023-06-10T06:25:36.679Z,60.15
2023-06-10T06:28:05.094Z,60.76
2023-06-10T06:30:34.873Z,60.27
2023-06-10T06:33:03.560Z,61.13
2023-06-10T06:35:35.230Z,59.46
2023-06-10T06:38:13.347Z,59.67
2023-06-10T06:40:44.727Z,58.84
2023-06-10T06:43:13.260Z,59.10
2023-06-10T06:45:58.723Z,58.40
2023-06-10T06:48:27.323Z,58.03
2023-06-10T06:50:57.317Z,58.14
2023-06-10T06:53:25.782Z,59.53
2023-06-10T06:55:54.431Z,58.81
2023-06-10T06:58:22.800Z,59.47
2023-06-10T07:00:51.440Z,58.00
2023-06-10T07:03:21.308Z,58.86
2023-06-10T07:05:49.729Z,58.59
2023-06-10T07:08:18.169Z,58.14
2023-06-10T07:10:46.477Z,57.85
2023-06-10T07:13:15.547Z,58.27
2023-06-10T07:15:44.036Z,57.74
2023-06-10T07:18:12.330Z,56.67
2023-06-10T07:20:42.572Z,56.50
2023-06-10T07:23:11.167Z,57.52
2023-06-10T07:25:39.829Z,56.99
2023-06-10T07:28:08.288Z,57.69
2023-06-10T07:30:36.773Z,57.40
2023-06-10T07:33:06.891Z,56.40
2023-06-10T07:35:35.668Z,56.87
2023-06-10T07:38:05.428Z,56.20
2023-06-10T07:40:35.538Z,55.79
2023-06-10T07:43:04.113Z,56.15
2023-06-10T07:45:32.444Z,55.77
2023-06-10T07:48:00.899Z,53.91
2023-06-10T07:50:29.336Z,55.20
2023-06-10T07:52:57.786Z,55.18
2023-06-10T07:55:28.285Z,53.58
2023-06-10T07:57:56.933Z,53.74
2023-06-10T08:00:25.969Z,53.27
2023-06-10T08:02:54.518Z,51.91
2023-06-10T08:05:23.273Z,51.50
2023-06-10T08:07:51.864Z,50.72
2023-06-10T08:10:20.525Z,50.85
2023-06-10T08:12:50.298Z,52.18
2023-06-10T08:15:19.031Z,50.73
2023-06-10T08:17:47.436Z,50.18
2023-06-10T08:20:16.073Z,50.03
2023-06-10T08:22:44.439Z,49.46
2023-06-10T08:25:12.855Z,50.52
2023-06-10T08:27:41.395Z,49.79
2023-06-10T08:30:14.342Z,50.08
2023-06-10T08:32:42.981Z,49.19
2023-06-10T08:35:11.611Z,47.62
2023-06-10T08:37:40.199Z,49.04
2023-06-10T08:40:10.660Z,48.41
2023-06-10T08:42:46.069Z,49.03
2023-06-10T08:45:20.643Z,48.47
2023-06-10T08:47:53.343Z,46.92
2023-06-10T08:50:23.905Z,46.60
2023-06-10T08:52:56.717Z,46.82
2023-06-10T08:55:32.861Z,47.40
2023-06-10T08:58:02.736Z,46.74
2023-06-10T09:00:34.545Z,46.88
2023-06-10T09:03:05.465Z,45.59
2023-06-10T09:05:37.591Z,47.48
2023-06-10T09:08:08.222Z,46.95
2023-06-10T09:10:36.531Z,45.98
2023-06-10T09:13:04.964Z,46.49
2023-06-10T09:15:34.769Z,46.01
2023-06-10T09:18:03.515Z,44.20
2023-06-10T09:20:31.967Z,44.42
2023-06-10T09:23:01.823Z,45.19
2023-06-10T09:25:39.023Z,45.50
2023-06-10T09:28:15.978Z,44.99
2023-06-10T09:30:45.743Z,46.59
2023-06-10T09:33:16.800Z,44.84
2023-06-10T09:35:50.287Z,45.36
2023-06-10T09:38:23.440Z,42.83
2023-06-10T09:40:53.472Z,43.35
2023-06-10T09:43:22.291Z,43.37
2023-06-10T09:45:54.278Z,43.17
2023-06-10T09:48:23.440Z,41.95
2023-06-10T09:50:51.892Z,43.33
2023-06-10T09:53:20.311Z,44.74
2023-06-10T09:55:48.875Z,42.28
2023-06-10T09:58:19.595Z,43.32
2023-06-10T10:00:56.540Z,43.12
2023-06-10T10:03:25.357Z,43.63
2023-06-10T10:06:01.557Z,43.28
2023-06-10T10:08:30.798Z,44.02
2023-06-10T10:11:00.274Z,42.43
2023-06-10T10:13:30.055Z,41.77
2023-06-10T10:16:06.299Z,42.32
2023-06-10T10:18:35.710Z,42.83
2023-06-10T10:21:10.592Z,42.60
2023-06-10T10:23:51.468Z,42.33
2023-06-10T10:26:21.017Z,43.28
2023-06-10T10:29:00.754Z,42.28
2023-06-10T10:31:35.752Z,40.61
2023-06-10T10:34:09.205Z,42.90
2023-06-10T10:36:39.401Z,40.79
2023-06-10T10:39:08.690Z,42.84
2023-06-10T10:41:40.574Z,41.13
2023-06-10T10:44:10.829Z,42.18
2023-06-10T10:46:47.141Z,41.45
2023-06-10T10:49:18.291Z,43.47
2023-06-10T10:52:00.181Z,41.25
2023-06-10T10:54:33.336Z,38.43
2023-06-10T10:57:19.801Z,39.90
2023-06-10T10:59:57.505Z,39.60
2023-06-10T11:02:45.398Z,38.98
2023-06-10T11:05:17.337Z,39.39
2023-06-10T11:07:57.561Z,41.91
2023-06-10T11:10:33.171Z,38.88
2023-06-10T11:13:01.876Z,39.57
2023-06-10T11:15:31.802Z,39.18
2023-06-10T11:18:16.172Z,37.90
2023-06-10T11:20:54.100Z,37.52
2023-06-10T11:23:40.774Z,38.02
2023-06-10T11:26:33.894Z,39.09
2023-06-10T11:29:10.813Z,36.86
2023-06-10T11:31:48.942Z,36.10
2023-06-10T11:34:26.072Z,36.90
2023-06-10T11:36:55.123Z,36.97
2023-06-10T11:39:27.364Z,38.80
2023-06-10T11:41:56.697Z,37.47
2023-06-10T11:44:30.216Z,38.37
2023-06-10T11:46:59.224Z,36.88
2023-06-10T11:49:29.081Z,36.33
2023-06-10T11:51:57.597Z,36.45
2023-06-10T11:54:26.059Z,38.22
2023-06-10T11:57:01.166Z,37.33
2023-06-10T11:59:30.528Z,37.87
2023-06-10T12:01:59.372Z,39.31
2023-06-10T12:04:29.193Z,37.71
2023-06-10T12:06:57.886Z,38.08
2023-06-10T12:09:28.679Z,36.07
2023-06-10T12:12:01.546Z,37.25
2023-06-10T12:14:58.749Z,37.43
2023-06-10T12:17:39.875Z,37.75
2023-06-10T12:20:27.280Z,37.16
2023-06-10T12:22:55.838Z,36.34
2023-06-10T12:25:28.026Z,35.93
2023-06-10T12:27:59.584Z,37.10
2023-06-10T12:30:29.436Z,35.20
2023-06-10T12:32:58.926Z,35.78
2023-06-10T12:35:30.935Z,35.24
2023-06-10T12:38:02.124Z,35.72
2023-06-10T12:40:32.574Z,35.36
2023-06-10T12:43:01.608Z,35.21
2023-06-10T12:45:31.432Z,36.50
2023-06-10T12:48:12.015Z,34.90
2023-06-10T12:50:44.536Z,34.00
2023-06-10T12:53:14.096Z,33.84
2023-06-10T12:55:42.994Z,36.43
2023-06-10T12:58:11.348Z,36.28
2023-06-10T13:00:42.529Z,35.93
2023-06-10T13:03:12.288Z,36.67
2023-06-10T13:05:42.335Z,37.57
2023-06-10T13:08:12.139Z,36.77
2023-06-10T13:10:40.867Z,34.92
2023-06-10T13:13:10.989Z,34.45
2023-06-10T13:15:43.752Z,33.29
2023-06-10T13:18:13.334Z,33.32
2023-06-10T13:20:43.787Z,34.35
2023-06-10T13:23:12.211Z,34.68
2023-06-10T13:25:41.884Z,34.49
2023-06-10T13:28:10.402Z,35.03
2023-06-10T13:30:38.734Z,33.45
2023-06-10T13:33:07.367Z,35.40
2023-06-10T13:35:35.866Z,34.10
2023-06-10T13:38:05.719Z,33.79
2023-06-10T13:40:35.659Z,34.30
2023-06-10T13:43:03.994Z,33.18
2023-06-10T13:45:32.469Z,31.46
2023-06-10T13:48:00.959Z,32.88
2023-06-10T13:50:29.405Z,32.51
2023-06-10T13:52:58.169Z,32.28
2023-06-10T13:55:28.047Z,32.67
2023-06-10T13:57:56.549Z,31.65
2023-06-10T14:00:25.198Z,32.14
2023-06-10T14:02:53.890Z,31.65
2023-06-10T14:05:22.392Z,31.86
2023-06-10T14:07:51.002Z,32.59
2023-06-10T14:10:21.861Z,32.15
2023-06-10T14:12:51.560Z,31.91
2023-06-10T14:15:20.196Z,32.42
2023-06-10T14:17:48.615Z,33.26
2023-06-10T14:20:17.064Z,32.53
2023-06-10T14:22:45.815Z,33.15
2023-06-10T14:25:14.461Z,31.46
2023-06-10T14:27:43.118Z,32.72
2023-06-10T14:30:13.795Z,34.34
2023-06-10T14:32:42.192Z,32.90
2023-06-10T14:35:11.202Z,34.07
2023-06-10T14:37:39.829Z,32.83
2023-06-10T14:40:09.937Z,32.03
2023-06-10T14:42:38.337Z,32.01
2023-06-10T14:45:08.986Z,31.32
2023-06-10T14:47:39.021Z,32.99
2023-06-10T14:50:08.415Z,32.52
2023-06-10T14:52:36.728Z,32.22
2023-06-10T14:55:05.823Z,34.12
2023-06-10T14:57:36.795Z,33.80
2023-06-10T15:00:06.794Z,31.83
2023-06-10T15:02:35.132Z,32.96
2023-06-10T15:05:05.668Z,32.75
2023-06-10T15:07:34.050Z,34.43
2023-06-10T15:10:02.462Z,32.06
2023-06-10T15:12:31.313Z,32.18
2023-06-10T15:15:00.035Z,30.30
2023-06-10T15:17:28.980Z,32.12
2023-06-10T15:19:57.819Z,31.42
2023-06-10T15:22:27.705Z,30.64
2023-06-10T15:24:56.598Z,31.68
2023-06-10T15:27:24.991Z,32.11
2023-06-10T15:29:53.763Z,32.04
2023-06-10T15:32:22.192Z,32.58
2023-06-10T15:34:52.319Z,34.63
2023-06-10T15:37:20.735Z,36.50
2023-06-10T15:39:50.408Z,36.57
2023-06-10T15:42:18.817Z,36.00
2023-06-10T15:44:47.476Z,37.18
2023-06-10T15:47:15.883Z,36.67
2023-06-10T15:49:44.300Z,36.04
2023-06-10T15:52:12.824Z,37.00
2023-06-10T15:54:41.155Z,36.30
2023-06-10T15:57:10.995Z,36.04
2023-06-10T15:59:39.426Z,35.82
2023-06-10T16:02:08.312Z,36.06
2023-06-10T16:04:36.667Z,35.46
2023-06-10T16:07:05.716Z,36.43
2023-06-10T16:09:34.151Z,35.08
2023-06-10T16:12:03.230Z,34.91
2023-06-10T16:14:33.397Z,35.50
2023-06-10T16:17:01.987Z,34.51
2023-06-10T16:19:30.756Z,34.87
2023-06-10T16:21:59.090Z,34.55
2023-06-10T16:24:27.829Z,34.49
2023-06-10T16:26:56.204Z,35.39
2023-06-10T16:29:24.646Z,34.26
2023-06-10T16:31:54.658Z,34.62
2023-06-10T16:34:23.138Z,34.37
2023-06-10T16:36:51.718Z,34.23
2023-06-10T16:39:20.107Z,34.07
2023-06-10T16:41:48.480Z,34.36
2023-06-10T16:44:18.056Z,33.99
2023-06-10T16:46:46.835Z,34.44
2023-06-10T16:49:16.797Z,33.99
2023-06-10T16:51:45.245Z,33.99
2023-06-10T16:54:13.644Z,34.01
2023-06-10T16:56:42.013Z,34.41
2023-06-10T16:59:10.641Z,33.96
2023-06-10T17:01:39.215Z,33.37
2023-06-10T17:04:07.631Z,33.42
2023-06-10T17:06:37.489Z,32.91
2023-06-10T17:09:05.968Z,33.65
2023-06-10T17:11:35.120Z,32.78
2023-06-10T17:14:03.545Z,33.51
2023-06-10T17:16:32.014Z,33.17
2023-06-10T17:19:00.638Z,33.49
2023-06-10T17:21:29.199Z,34.22
2023-06-10T17:23:59.004Z,34.29
2023-06-10T17:26:28.045Z,34.17
2023-06-10T17:28:56.435Z,33.21
2023-06-10T17:31:24.806Z,33.91
2023-06-10T17:33:53.210Z,34.25
2023-06-10T17:36:21.867Z,33.84
2023-06-10T17:38:50.511Z,33.95
2023-06-10T17:41:20.266Z,33.62
2023-06-10T17:43:48.694Z,33.74
2023-06-10T17:46:17.094Z,33.36
2023-06-10T17:48:45.386Z,33.58
2023-06-10T17:51:13.719Z,33.81
2023-06-10T17:53:42.150Z,33.85
2023-06-10T17:56:10.495Z,33.44
2023-06-10T17:58:40.828Z,33.41
2023-06-10T18:01:09.173Z,33.96
2023-06-10T18:03:37.989Z,33.34
2023-06-10T18:06:06.855Z,32.79
2023-06-10T18:08:36.089Z,32.83
2023-06-10T18:11:04.649Z,33.21
2023-06-10T18:13:33.801Z,33.46
2023-06-10T18:16:03.557Z,33.32
2023-06-10T18:18:32.095Z,32.75
2023-06-10T18:21:02.915Z,32.80
2023-06-10T18:23:31.734Z,33.18
2023-06-10T18:26:00.153Z,32.90
2023-06-10T18:28:30.947Z,33.21
2023-06-10T18:30:59.734Z,32.90
2023-06-10T18:33:31.679Z,33.25
2023-06-10T18:36:00.115Z,33.12
2023-06-10T18:38:28.568Z,32.90
2023-06-10T18:40:56.928Z,33.13
2023-06-10T18:43:25.358Z,33.47
2023-06-10T18:45:53.823Z,33.58
2023-06-10T18:48:22.266Z,33.12
2023-06-10T18:50:52.006Z,33.73
2023-06-10T18:53:20.438Z,33.10
2023-06-10T18:55:49.033Z,33.65
2023-06-10T18:58:17.425Z,33.69
2023-06-10T19:00:45.991Z,32.77
2023-06-10T19:03:14.539Z,33.24
2023-06-10T19:05:42.877Z,32.81
2023-06-10T19:08:12.695Z,32.92
2023-06-10T19:10:41.520Z,32.81
2023-06-10T19:13:09.980Z,32.42
2023-06-10T19:15:38.344Z,32.77
2023-06-10T19:18:06.895Z,32.84
2023-06-10T19:20:36.377Z,32.72
2023-06-10T19:23:04.933Z,32.79
2023-06-10T19:25:34.878Z,32.88
2023-06-10T19:28:03.196Z,33.01
2023-06-10T19:30:32.399Z,32.40
2023-06-10T19:33:01.036Z,32.15
2023-06-10T19:35:29.525Z,32.94
2023-06-10T19:37:58.597Z,32.89
2023-06-10T19:40:26.970Z,32.74
2023-06-10T19:42:58.469Z,33.01
2023-06-10T19:45:26.901Z,33.00
2023-06-10T19:47:55.468Z,33.41
2023-06-10T19:50:24.352Z,32.97
2023-06-10T19:52:52.750Z,33.21
2023-06-10T19:55:21.346Z,33.36
2023-06-10T19:57:49.766Z,33.33
2023-06-10T20:00:20.010Z,33.37
2023-06-10T20:02:48.418Z,33.51
2023-06-10T20:05:16.971Z,33.24
2023-06-10T20:07:45.475Z,33.15
2023-06-10T20:10:13.840Z,33.41
2023-06-10T20:12:42.192Z,33.65
2023-06-10T20:15:11.868Z,33.69
2023-06-10T20:17:41.961Z,33.44
2023-06-10T20:20:11.926Z,33.57
2023-06-10T20:22:40.331Z,33.96
2023-06-10T20:25:10.847Z,33.76
2023-06-10T20:27:39.345Z,33.82
2023-06-10T20:30:09.428Z,33.96
2023-06-10T20:32:38.026Z,33.85
2023-06-10T20:35:09.950Z,33.78
2023-06-10T20:37:38.808Z,34.03
2023-06-10T20:40:08.957Z,33.87
2023-06-10T20:42:37.362Z,34.42
2023-06-10T20:45:07.734Z,34.36
2023-06-10T20:47:36.722Z,34.53
2023-06-10T20:50:07.406Z,34.44
2023-06-10T20:52:35.784Z,34.60
2023-06-10T20:55:04.338Z,34.50
2023-06-10T20:57:32.729Z,34.58
2023-06-10T21:00:01.112Z,34.17
2023-06-10T21:02:29.710Z,34.17
2023-06-10T21:05:00.572Z,34.37
2023-06-10T21:07:30.431Z,34.98
2023-06-10T21:10:00.500Z,34.77
2023-06-10T21:12:29.051Z,35.17
2023-06-10T21:14:57.787Z,34.99
2023-06-10T21:17:26.301Z,35.28
2023-06-10T21:19:54.686Z,35.32
2023-06-10T21:22:23.390Z,35.82
2023-06-10T21:24:53.681Z,35.80
2023-06-10T21:27:22.989Z,35.06
2023-06-10T21:29:51.441Z,35.98
2023-06-10T21:32:20.417Z,35.44
2023-06-10T21:34:48.818Z,35.75
2023-06-10T21:37:17.332Z,35.90
2023-06-10T21:39:45.834Z,36.00
2023-06-10T21:42:17.757Z,36.25
2023-06-10T21:44:46.747Z,36.22
2023-06-10T21:47:15.122Z,36.17
2023-06-10T21:49:43.498Z,36.21
2023-06-10T21:52:12.224Z,36.54
2023-06-10T21:54:40.631Z,36.38
2023-06-10T21:57:09.192Z,35.95
2023-06-10T21:59:39.110Z,36.38
2023-06-10T22:02:10.038Z,36.01
2023-06-10T22:04:40.086Z,36.84
2023-06-10T22:07:10.948Z,36.87
2023-06-10T22:09:40.936Z,36.93
2023-06-10T22:12:10.984Z,36.87
2023-06-10T22:14:40.675Z,36.66
2023-06-10T22:17:09.363Z,36.88
2023-06-10T22:19:39.613Z,36.75
2023-06-10T22:22:08.608Z,36.51
2023-06-10T22:24:37.449Z,36.97
2023-06-10T22:27:06.836Z,37.07
2023-06-10T22:29:35.271Z,37.20
2023-06-10T22:32:05.527Z,37.43
2023-06-10T22:34:33.916Z,36.99
2023-06-10T22:37:02.258Z,36.93
2023-06-10T22:39:30.690Z,37.25
2023-06-10T22:41:59.069Z,37.27
2023-06-10T22:44:27.489Z,37.64
2023-06-10T22:46:55.878Z,37.39
2023-06-10T22:49:25.716Z,37.16
2023-06-10T22:51:54.128Z,37.59
2023-06-10T22:54:22.526Z,37.59
2023-06-10T22:56:50.971Z,37.95
2023-06-10T22:59:19.423Z,37.67
2023-06-10T23:01:47.824Z,37.81
2023-06-10T23:04:16.267Z,38.34
2023-06-10T23:06:47.650Z,37.99
2023-06-10T23:09:16.607Z,38.28
2023-06-10T23:11:46.263Z,38.33
2023-06-10T23:14:14.606Z,38.28
2023-06-10T23:16:46.639Z,38.44
2023-06-10T23:19:19.288Z,38.42
2023-06-10T23:21:54.360Z,38.66
2023-06-10T23:24:28.093Z,38.88
2023-06-10T23:26:57.836Z,39.30
2023-06-10T23:29:26.982Z,39.18
2023-06-10T23:31:56.724Z,39.02
2023-06-10T23:34:25.307Z,39.52
2023-06-10T23:36:55.077Z,39.47
2023-06-10T23:39:23.735Z,40.03
2023-06-10T23:41:52.106Z,39.77
2023-06-10T23:44:20.628Z,40.23
2023-06-10T23:46:49.022Z,39.99
2023-06-10T23:49:17.368Z,40.29
2023-06-10T23:51:45.696Z,40.15
2023-06-10T23:54:16.016Z,40.47
2023-06-10T23:56:44.591Z,40.97
2023-06-10T23:59:12.964Z,40.73
